• Join FlightAware (Why Join?)
  • Login
  • US Flag 
03:58AM EDT


 

Airport Tracker/Info


-or-


 

Live Flight TrackerFlight Track Log ✈ JZA8745 ✈ 09-May-2013 ✈ CZBF - CYUL

Flight Track Log - Related Links

Times and Time Zones

All times are in EDT time to prevent confusion due to time zone crossing. See the JZA8745 flight status page for this flight to view local times or setup timezone preferences in your user account.

Time Position Orientation Groundspeed Altitude Reporting Facility
EDT Latitude Longitude Course Direction KTS MPH feet Rate Location/Type
02:58PM 47.5333 -65.9667 244° Southwest 150 173 7,100  Level Moncton Center
02:59PM 47.5167 -66.0333 250° West 150 173 8,800 1,560 Climbing Moncton Center
03:00PM 47.5000 -66.0833 244° Southwest 150 173 10,300 1,320 Climbing Moncton Center
03:01PM 47.4833 -66.1333 244° Southwest 150 173 11,500 1,200 Climbing Moncton Center
03:02PM 47.3542 -66.4725 240° Southwest  Level FlightAware Approximate
03:02PM 47.4500 -66.2000 234° Southwest 170 196 12,700  Level Moncton Center
03:03PM 47.3260 -66.5556 244° Southwest  Level FlightAware Approximate
03:03PM 47.4333 -66.2500 244° Southwest 170 196 13,700  Level Moncton Center
03:04PM 47.4167 -66.3333 254° West 170 196 14,600 780 Climbing Moncton Center
03:05PM 47.4000 -66.3833 244° Southwest 180 207 15,300 720 Climbing Moncton Center
03:06PM 47.3667 -66.4500 234° Southwest 190 219 16,100 780 Climbing Moncton Center
03:07PM 47.3500 -66.5167 250° West 190 219 16,900 720 Climbing Moncton Center
03:08PM 47.3167 -66.6000 239° Southwest 190 219 17,600 600 Climbing Moncton Center
03:09PM 47.3000 -66.6667 250° West 180 207 18,200 600 Climbing Moncton Center
03:10PM 47.2667 -66.7167 226° Southwest 190 219 18,900 660 Climbing Moncton Center
03:11PM 47.2333 -66.7833 234° Southwest 190 219 19,600 600 Climbing Moncton Center
03:12PM 47.2167 -66.8667 254° West 180 207 20,100 540 Climbing Moncton Center
03:13PM 47.1833 -66.9333 234° Southwest 190 219 20,700 540 Climbing Moncton Center
03:14PM 47.1667 -67.0000 250° West 190 219 21,200 480 Climbing Moncton Center
03:15PM 47.1500 -67.0833 254° West 190 219 21,700 360 Climbing Moncton Center
03:16PM 47.1167 -67.1333 226° Southwest 200 230 22,000 300 Climbing Moncton Center
03:17PM 47.1000 -67.2333 256° West 200 230 22,400 360 Climbing Moncton Center
03:18PM 47.0667 -67.2667 214° Southwest 200 230 22,800 360 Climbing Moncton Center
03:19PM 47.0500 -67.3500 254° West 190 219 23,200 240 Climbing Moncton Center
03:20PM 47.0278 -67.4158 244° Southwest 203 234 23,400 240 Climbing Boston Center
03:21PM 47.0014 -67.4853 241° Southwest 203 234 23,800 300 Climbing Boston Center
03:22PM 46.9500 -67.5667 227° Southwest 200 230 24,000 60 Climbing Moncton Center
03:23PM 46.9333 -67.6500 254° West 210 242 24,000  Level Moncton Center
03:24PM 46.9000 -67.7333 240° Southwest 220 253 24,000  Level Moncton Center
03:25PM 46.8850 -67.7964 251° West 224 258 24,000  Level Boston Center
03:26PM 46.8606 -67.8622 242° Southwest 231 266 24,000  Level Boston Center
03:27PM 46.8247 -67.9592 242° Southwest 236 272 24,000  Level Boston Center
03:28PM 46.7814 -68.0778 242° Southwest 246 283 24,000  Level Boston Center
03:29PM 46.7556 -68.1678 247° West 246 283 24,000  Level Boston Center
03:30PM 46.7294 -68.2544 246° West 246 283 24,000  Level Boston Center
03:31PM 46.7036 -68.3472 248° West 241 277 24,000  Level Boston Center
03:32PM 46.6772 -68.4308 245° Southwest 236 272 24,000  Level Boston Center
03:33PM 46.6511 -68.5203 247° West 236 272 24,000  Level Boston Center
03:34PM 46.6269 -68.6067 248° West 236 272 24,000  Level Boston Center
03:35PM 46.6006 -68.6900 245° Southwest 236 272 24,000  Level Boston Center
03:36PM 46.5742 -68.7794 247° West 236 272 24,000  Level Boston Center
03:37PM 46.5497 -68.8625 247° West 236 272 24,000  Level Boston Center
03:38PM 46.5231 -68.9456 245° Southwest 236 272 24,000  Level Boston Center
03:39PM 46.4983 -69.0314 247° West 236 272 24,000  Level Boston Center
03:40PM 46.4717 -69.1175 246° West 236 272 24,000  Level Boston Center
03:41PM 46.4467 -69.1914 244° Southwest 236 272 24,000  Level Boston Center
03:42PM 46.4197 -69.2742 245° Southwest 236 272 24,000  Level Boston Center
03:43PM 46.3989 -69.3444 247° West 236 272 24,000  Level Boston Center
03:44PM 46.3683 -69.4486 247° West 236 272 24,000  Level Boston Center
03:45PM 46.3431 -69.5281 245° Southwest 236 272 24,000  Level Boston Center
03:46PM 46.3161 -69.6136 246° West 236 272 24,000  Level Boston Center
03:47PM 46.2889 -69.6989 245° Southwest 236 272 24,000  Level Boston Center
03:48PM 46.2581 -69.8025 247° West 236 272 24,000  Level Boston Center
03:49PM 46.2308 -69.8878 245° Southwest 236 272 24,000  Level Boston Center
03:50PM 46.2033 -69.9700 244° Southwest 236 272 24,000  Level Boston Center
03:51PM 46.1761 -70.0581 246° West 236 272 24,000 -300 Level Boston Center
03:52PM 46.1317 -70.1317 229° Southwest 241 277 23,400 -660 Descending Boston Center
03:53PM 46.1000 -70.1833 229° Southwest 250 288 23,000 -480 Descending Moncton Center
03:53PM 46.0667 -70.1833 180° South 260 299 23,000  Level Montreal Center
03:54PM 46.0333 -70.2667 240° Southwest 250 288 23,000  Level Montreal Center
03:55PM 45.9833 -70.3500 229° Southwest 240 276 23,000  Level Montreal Center
03:56PM 45.9500 -70.4167 234° Southwest 250 288 23,000  Level Moncton Center
03:56PM 45.9500 -70.4000 90° East 240 276 23,000  Level Montreal Center
03:57PM 45.9000 -70.4667 223° Southwest 240 276 23,000  Level Montreal Center
03:58PM 45.8500 -70.5500 229° Southwest 240 276 23,000  Level Montreal Center
03:59PM 45.8333 -70.6500 257° West 240 276 23,000  Level Moncton Center
04:00PM 45.8333 -70.7333 270° West 250 288 23,000  Level Moncton Center
04:00PM 45.8167 -70.7500 215° Southwest 250 288 23,000  Level Montreal Center
04:01PM 45.8167 -70.8500 270° West 250 288 23,000  Level Montreal Center
04:02PM 45.8333 -70.9333 286° West 250 288 23,000  Level Montreal Center
04:03PM 45.8333 -71.0667 270° West 250 288 23,000  Level Montreal Center
04:04PM 45.8167 -71.1500 254° West 260 299 23,000  Level Montreal Center
04:05PM 45.8167 -71.2500 270° West 260 299 23,000  Level Montreal Center
04:06PM 45.8333 -71.3500 283° West 260 299 23,000  Level Montreal Center
04:07PM 45.8167 -71.4667 258° West 260 299 23,000  Level Montreal Center
04:08PM 45.8167 -71.5667 270° West 260 299 23,000  Level Montreal Center
04:09PM 45.8000 -71.6667 257° West 260 299 23,000  Level Montreal Center
04:10PM 45.8000 -71.7833 270° West 260 299 23,000  Level Montreal Center
04:11PM 45.8000 -71.8833 270° West 260 299 23,000 -300 Level Montreal Center
04:12PM 45.7833 -71.9833 257° West 260 299 22,500 -780 Descending Montreal Center
04:13PM 45.7667 -72.1000 258° West 280 322 21,500 -1,140 Descending Montreal Center
04:14PM 45.7833 -72.2167 282° West 300 345 20,300 -1,200 Descending Montreal Center
04:15PM 45.7667 -72.3333 258° West 300 345 19,200 -1,380 Descending Montreal Center
04:16PM 45.7500 -72.4667 260° West 300 345 17,600 -1,500 Descending Montreal Center
04:17PM 45.7500 -72.5500 270° West 300 345 16,300 -1,380 Descending Montreal Center
04:18PM 45.7500 -72.6833 270° West 300 345 14,900 -1,440 Descending Montreal Center
04:19PM 45.7333 -72.8000 258° West 290 334 13,500 -1,440 Descending Montreal Center
04:20PM 45.7167 -72.9167 258° West 280 322 12,100 -1,320 Descending Montreal Center
04:21PM 45.7000 -73.0167 257° West 270 311 10,900 -1,260 Descending Montreal Center
04:22PM 45.6833 -73.1167 257° West 270 311 9,600 -1,320 Descending Montreal Center
04:23PM 45.6667 -73.2333 258° West 260 299 8,300 -1,380 Descending Montreal Center
04:24PM 45.6667 -73.3333 270° West 260 299 6,900 -1,500 Descending Montreal Center
04:25PM 45.6333 -73.4333 245° Southwest 260 299 5,400 -1,500 Descending Montreal Center
04:26PM 45.6000 -73.5000 234° Southwest 240 276 4,000 -1,380 Descending Montreal Center
04:27PM 45.5667 -73.6000 245° Southwest 240 276 2,700 -1,200 Descending Montreal Center
04:28PM 45.5333 -73.6500 226° Southwest 190 219 1,600 -960 Descending Montreal Center
04:29PM 45.5000 -73.7000 226° Southwest 160 184 800 -840 Descending Montreal Center